Huvudsida
METAR-TAF:

METAR-TAF

Flygplatser :

Luxeuil-les-Bains, Frankrike

latitud: 47-47N, longitud: 006-21E, höjd: 278 m

Aktuellt väderrapport

Denna rapport gjordes för 21 minuter sedan, klockan 14:30 UTC
Vind 3 kt varierande vindriktning
Temperatur 37°C
Fuktighet 33%
Tryck 1021 hPa
Sikt 10 km eller mer
Inga moln under 1 500 m eller inga cumulonimbus

METAR: LFSX 261430Z AUTO VRB03KT CAVOK 37/18 Q1021

Tid: 16:51 (14:51 UTC)

Väderprognos

Denna rapport gjordes för 51 minuter sedan, klockan 14:00 UTC
Prognos gäller från 26 kl. 15 UTC till 27 kl. 15 UTC
Vind 3 kt varierande vindriktning
Sikt 10 km eller mer
Inga moln under 1 500 m eller inga cumulonimbus
Blir
från 27 kl. 14 UTC till 27 kl. 15 UTC
Vind 13 kt från nord

TAF: LFSX 261400Z 2615/2715 VRB03KT CAVOK BECMG 2714/2715 36013KT

Aktuella väderrapporter och prognoser från 4000 flygplatser (METAR- och TAF-rapporter).

De tillgängliga stationerna syns som gula och röda prickar på kartan.

För musen över prickarna för att se namnen på stationerna.

Klicka sedan för att få väderrapporter och prognoser.

För att ändra kartan: Klicka på de gröna knapparna med ett svart kors på för att zooma in; den gröna knappen med ett streck på för att zooma ut; eller på de gröna pilarna för angränsande kartor.


METAR-TAF: